Wednesday, May 27, 2015, 11:41 AM EDT

KMDT, Harrisburg International Airport

Location: Middletown, PA, United States Lat: 40.2
Local Time: 11:41 AM EDT (15:41 GMT) Lon: -76.767
Time Zone: US/Eastern Elev: 308 ft

Show me the last for .
Show Decoded

2015-05-27 10:56 METAR KMDT 271456Z 20007KT 10SM SCT050 SCT120 BKN250 28/20 A3013 RMK AO2 SLP200
                 T02830200 58003 =
2015-05-27 09:56 METAR KMDT 271356Z 20009G16KT 10SM SCT018 SCT110 BKN250 27/21 A3013 =
2015-05-27 08:56 METAR KMDT 271256Z 21009KT 10SM SCT016 BKN250 25/20 A3014 RMK AO2 SLP205
                 T02500200 =
2015-05-27 07:56 METAR KMDT 271156Z 22009KT 9SM FEW016 BKN060 23/19 A3014 =
2015-05-27 06:56 METAR KMDT 271056Z 14004KT 10SM SCT060 BKN250 23/19 A3013 RMK AO2 SLP200
                 T02280189 =
2015-05-27 05:56 METAR KMDT 270956Z 15004KT 10SM BKN100 BKN250 22/18 A3011 =
2015-05-27 04:56 METAR KMDT 270856Z 17006KT 10SM FEW070 SCT120 22/18 A3010 =
2015-05-27 03:56 METAR KMDT 270756Z 15005KT 10SM SCT130 22/18 A3011 =
2015-05-27 02:56 METAR KMDT 270656Z 15008KT 10SM BKN140 23/19 A3011 RMK AO2 SLP195 T02280189 =
2015-05-27 01:56 METAR KMDT 270556Z 16007KT 10SM FEW140 SCT170 BKN250 23/18 A3012 =
2015-05-27 00:56 METAR KMDT 270456Z 16007KT 10SM FEW120 SCT250 23/18 A3013 =
2015-05-26 23:56 METAR KMDT 270356Z 16006KT 10SM BKN250 24/19 A3013 =
2015-05-26 22:56 METAR KMDT 270256Z 14006KT 10SM FEW045 FEW180 BKN250 24/19 A3013 =
2015-05-26 21:56 METAR KMDT 270156Z 14006KT 10SM SCT180 BKN250 26/20 A3012 =
2015-05-26 20:56 METAR KMDT 270056Z 15007KT 10SM SCT190 BKN250 26/19 A3011 RMK AO2 SLP194
                 T02610194 =
2015-05-26 19:56 METAR KMDT 262356Z 19004KT 10SM FEW150 BKN250 27/18 A3010 =
2015-05-26 18:56 METAR KMDT 262256Z 20005KT 10SM FEW050 FEW150 BKN230 29/18 A3010 RMK AO2 SLP192
                 T02890178 =
2015-05-26 17:56 METAR KMDT 262156Z VRB04KT 10SM FEW050 SCT140 BKN200 BKN250 29/18 A3012 =
2015-05-26 16:56 METAR KMDT 262056Z 23006KT 10SM FEW050 BKN140 BKN250 29/17 A3012 =
2015-05-26 15:56 METAR KMDT 261956Z 21007KT 10SM FEW050 SCT100 BKN140 BKN250 29/17 A3013 =
2015-05-26 14:56 METAR KMDT 261856Z 22007KT 10SM FEW055 BKN130 BKN250 29/17 A3015 RMK AO2 SLP208
                 T02940172 =
2015-05-26 13:56 METAR KMDT 261756Z 14005KT 10SM SCT150 30/17 A3016 =
2015-05-26 12:56 METAR KMDT 261656Z 13004KT 10SM BKN150 28/17 A3018 RMK AO2 SLP219 T02830172 =
2015-05-26 11:56 METAR KMDT 261556Z 15005KT 10SM SCT120 27/17 A3020 RMK AO2 SLP223 T02720167 =

Support USWX by starting your Amazon purchase here.